AirNav  
 
 1346 users online  

2U0 Smith Prairie Airport
Prairie, Idaho, USA


FAA INFORMATION EFFECTIVE 01 FEBRUARY 2018

Location

FAA Identifier: 2U0
Lat/Long: 43-29-54.1000N / 115-32-49.1000W
43-29.901667N / 115-32.818333W
43.4983611 / -115.5469722
(estimated)
Elevation: 4958 ft. / 1511 m (estimated)
Variation: 17E (1985)
From city: 2 miles SE of PRAIRIE, ID
Time zone: UTC -7 (UTC -6 during Daylight Saving Time)
Zip code: 83647

Airport Operations

Airport use: Open to the public
Activation date: 02/1961
Control tower: no
ARTCC: SALT LAKE CITY CENTER
FSS: BOISE FLIGHT SERVICE STATION
NOTAMs facility: BOI (NOTAM-D service available)
Attendance: UNATNDD
Wind indicator: yes
Segmented circle: yes

Airport Communications

CTAF: 122.9

Nearby radio navigation aids

VOR radial/distance  VOR name  Freq  Var
BOIr080/28.3BOISE VORTAC113.3017E
LIAr360/(32.5)LIBERATOR VOR114.9018E

Airport Services

Parking: tiedowns
Airframe service: NONE
Powerplant service: NONE
Bottled oxygen: NONE
Bulk oxygen: NONE

Runway Information

Runway 6/24

Dimensions: 5400 x 150 ft. / 1646 x 46 m
Surface: turf/dirt, in good condition
Runway edge markings: 06/24 EDGES & THRS MARKED WITH WHITE ROCKS.
Gradient: NE
RUNWAY 6  RUNWAY 24
Latitude: 43-29.762833N43-30.040667N
Longitude: 115-33.399000W115-32.238833W
Elevation: 4870.0 ft.4958.0 ft.
Gradient: 1.6% UP
Traffic pattern: leftleft
Runway heading: 054 magnetic, 071 true234 magnetic, 251 true
Obstructions: 4 ft. fence, 115 ft. right of centerline5 ft. sign, 90 ft. left of centerline
RY 24 +10 FT TO 50 FT TREES ON CNTRLN: +50 FT TREE AT 75 FT, 125 FT L.

Airport Ownership and Management from official FAA records

Ownership: Publicly-owned
Owner: STATE OF ID, ITD DIV OF AERO
P.O. BOX 7129
BOISE, ID 83707-1129
Phone 208-334-8775
Manager: DIV ADMIN
P.O. BOX 7129
BOISE, ID 83707-1129
Phone 208-334-8775

Airport Operational Statistics

Aircraft operations: avg 27/week *
86% transient general aviation
14% military
* for 12-month period ending 23 June 2017

Additional Remarks

NO WINTER MAINTENANCE.
RCMD LAND RWY 06; TKOF RWY 24 WHEN WND COND PERMITS.
NO TELEPHONE AVBL AT ARPT.

Instrument Procedures

There are no published instrument procedures at 2U0.

Some nearby airports with instrument procedures:

U76 - Mountain Home Municipal Airport (23 nm S)
KBOI - Boise Air Terminal/Gowen Field (30 nm W)
KMUO - Mountain Home Air Force Base (31 nm SW)
KMAN - Nampa Municipal Airport (43 nm W)
KEUL - Caldwell Industrial Airport (48 nm W)
 
Loc | Ops | Rwys | IFR | FBO | Links
Com | Nav | Svcs | Stats | Notes

AirNav Hotels Sweepstakes
 
Area around 2U0 (Smith Prairie Airport)
 
Road maps at: MapQuest Bing Google
 
Aerial photo
WARNING: Photo may not be current or correct
Aerial photo of 2U0 (Smith Prairie Airport)
Photo by Raul Agosto
Photo taken 05-Sep-2011
looking northeast.

Do you have a better or more recent aerial photo of Smith Prairie Airport that you would like to share? If so, please send us your photo.

 
Sectional chart

 
Airport distance calculator
Flying to Smith Prairie Airport? Find the distance to fly.

From to 2U0

Sunrise and sunset
Times for 20-Feb-2018
 Local
(UTC-7)
 Zulu
(UTC)
Morning civil twilight07:0514:05
Sunrise07:3414:34
Sunset18:1801:18
Evening civil twilight18:4701:47

Current date and time
Zulu (UTC)  20-Feb-2018 23:25:39
Local (UTC-7)  20-Feb-2018 16:25:39
 
METAR
U76 
23nm S 
SuperAWOS
202255Z AUTO 32006KT 10SM M03/M17 A3009
KBOI 
30nm W 
202253Z 34004KT 10SM FEW110 M03/M17 A3015 RMK AO2 SLP245 T10281172
KMUO 
31nm SW 
202256Z AUTO 33003KT 10SM CLR M03/M17 A3014 RMK AO2 SLP246 T10321169 $
KMAN 
43nm W 
202255Z AUTO 00000KT 10SM CLR M02/M17 A3017 RMK A01
TAF
KBOI 
30nm W 
201738Z 2018/2118 VRB05KT P6SM SKC FM210400 13007KT P6SM OVC120 FM211500 14010KT P6SM OVC060
KMUO 
31nm SW 
201823Z 2018/2124 30009KT 9999 FEW120 QNH3010INS BECMG 2102/2103 12009KT 9999 SCT100 BKN250 QNH3008INS BECMG 2113/2114 12009KT 9999 SCT060 BKN120 QNH3010INS BECMG 2118/2119 30010KT 9999 SCT045 BKN090 QNH3011INS TX01/2118Z TNM10/2018Z
NOTAMs
Click for the latest NOTAMs
NOTAMs are issued by the DoD/FAA and will open in a separate window not controlled by AirNav.

 

 
 

Would you like to see your business listed on this page?

 If your business provides an interesting product or service to pilots, flight crews, aircraft, or users of the Smith Prairie Airport, you should consider listing it here.  To start the listing process, click on the button below
 
Add a business
 

Other Pages about Smith Prairie Airport

www.flyidaho.org/...
 
Update a link
 
Copyright © AirNav, LLC. All rights reserved. Privacy Policy  Contact